sensor_id;sensor_type;location;lat;lon;timestamp;P1;durP1;ratioP1;P2;durP2;ratioP2
24157;SDS011;12316;50.904;4.200;2023-06-10T00:00:37;11.07;;;8.13;;
24157;SDS011;12316;50.904;4.200;2023-06-10T00:03:03;8.80;;;7.50;;
24157;SDS011;12316;50.904;4.200;2023-06-10T00:05:28;9.15;;;7.90;;
24157;SDS011;12316;50.904;4.200;2023-06-10T00:07:57;11.07;;;7.85;;
24157;SDS011;12316;50.904;4.200;2023-06-10T00:10:23;12.55;;;8.13;;
24157;SDS011;12316;50.904;4.200;2023-06-10T00:12:50;10.48;;;8.20;;
24157;SDS011;12316;50.904;4.200;2023-06-10T00:15:16;9.20;;;7.85;;
24157;SDS011;12316;50.904;4.200;2023-06-10T00:17:42;9.00;;;7.80;;
24157;SDS011;12316;50.904;4.200;2023-06-10T00:20:08;11.80;;;8.00;;
24157;SDS011;12316;50.904;4.200;2023-06-10T00:22:36;9.73;;;8.13;;
24157;SDS011;12316;50.904;4.200;2023-06-10T00:25:04;8.90;;;7.88;;
24157;SDS011;12316;50.904;4.200;2023-06-10T00:27:31;11.05;;;8.32;;
24157;SDS011;12316;50.904;4.200;2023-06-10T00:30:00;9.68;;;8.07;;
24157;SDS011;12316;50.904;4.200;2023-06-10T00:32:29;9.52;;;8.00;;
24157;SDS011;12316;50.904;4.200;2023-06-10T00:34:56;11.70;;;8.40;;
24157;SDS011;12316;50.904;4.200;2023-06-10T00:37:21;8.82;;;7.93;;
24157;SDS011;12316;50.904;4.200;2023-06-10T00:39:47;10.30;;;8.23;;
24157;SDS011;12316;50.904;4.200;2023-06-10T00:42:13;11.95;;;8.50;;
24157;SDS011;12316;50.904;4.200;2023-06-10T00:44:38;11.80;;;8.70;;
24157;SDS011;12316;50.904;4.200;2023-06-10T00:47:04;9.90;;;8.90;;
24157;SDS011;12316;50.904;4.200;2023-06-10T00:49:31;10.13;;;8.23;;
24157;SDS011;12316;50.904;4.200;2023-06-10T00:51:57;10.02;;;8.32;;
24157;SDS011;12316;50.904;4.200;2023-06-10T00:54:23;9.32;;;8.20;;
24157;SDS011;12316;50.904;4.200;2023-06-10T00:56:51;12.60;;;8.57;;
24157;SDS011;12316;50.904;4.200;2023-06-10T00:59:17;12.38;;;8.05;;
24157;SDS011;12316;50.904;4.200;2023-06-10T01:01:43;10.30;;;8.30;;
24157;SDS011;12316;50.904;4.200;2023-06-10T01:04:12;9.18;;;8.23;;
24157;SDS011;12316;50.904;4.200;2023-06-10T01:06:45;11.20;;;8.60;;
24157;SDS011;12316;50.904;4.200;2023-06-10T01:11:52;11.98;;;8.20;;
24157;SDS011;12316;50.904;4.200;2023-06-10T01:14:26;10.40;;;8.60;;
24157;SDS011;12316;50.904;4.200;2023-06-10T01:16:53;9.35;;;8.30;;
24157;SDS011;12316;50.904;4.200;2023-06-10T01:19:19;10.98;;;8.60;;
24157;SDS011;12316;50.904;4.200;2023-06-10T01:21:44;11.10;;;8.45;;
24157;SDS011;12316;50.904;4.200;2023-06-10T01:24:14;9.80;;;7.82;;
24157;SDS011;12316;50.904;4.200;2023-06-10T01:26:43;10.00;;;8.25;;
24157;SDS011;12316;50.904;4.200;2023-06-10T01:29:14;9.77;;;8.63;;
24157;SDS011;12316;50.904;4.200;2023-06-10T01:34:26;9.98;;;9.07;;
24157;SDS011;12316;50.904;4.200;2023-06-10T01:36:53;10.02;;;8.60;;
24157;SDS011;12316;50.904;4.200;2023-06-10T01:39:22;9.88;;;8.88;;
24157;SDS011;12316;50.904;4.200;2023-06-10T01:41:49;10.02;;;9.00;;
24157;SDS011;12316;50.904;4.200;2023-06-10T01:44:19;11.00;;;8.93;;
24157;SDS011;12316;50.904;4.200;2023-06-10T01:46:45;9.55;;;8.65;;
24157;SDS011;12316;50.904;4.200;2023-06-10T01:49:11;14.43;;;9.05;;
24157;SDS011;12316;50.904;4.200;2023-06-10T01:51:38;11.00;;;8.63;;
24157;SDS011;12316;50.904;4.200;2023-06-10T01:54:03;11.32;;;9.00;;
24157;SDS011;12316;50.904;4.200;2023-06-10T01:56:29;13.13;;;9.13;;
24157;SDS011;12316;50.904;4.200;2023-06-10T01:58:55;14.65;;;9.50;;
24157;SDS011;12316;50.904;4.200;2023-06-10T02:01:24;9.95;;;8.88;;
24157;SDS011;12316;50.904;4.200;2023-06-10T02:03:50;12.82;;;9.10;;
24157;SDS011;12316;50.904;4.200;2023-06-10T02:06:16;11.30;;;8.88;;
24157;SDS011;12316;50.904;4.200;2023-06-10T02:08:42;12.55;;;9.18;;
24157;SDS011;12316;50.904;4.200;2023-06-10T02:11:07;12.63;;;9.18;;
24157;SDS011;12316;50.904;4.200;2023-06-10T02:13:33;13.32;;;9.02;;
24157;SDS011;12316;50.904;4.200;2023-06-10T02:16:00;11.02;;;9.30;;
24157;SDS011;12316;50.904;4.200;2023-06-10T02:18:26;10.32;;;9.23;;
24157;SDS011;12316;50.904;4.200;2023-06-10T02:20:53;10.68;;;9.07;;
24157;SDS011;12316;50.904;4.200;2023-06-10T02:23:19;11.00;;;9.77;;
24157;SDS011;12316;50.904;4.200;2023-06-10T02:25:44;13.07;;;9.73;;
24157;SDS011;12316;50.904;4.200;2023-06-10T02:28:12;11.13;;;9.30;;
24157;SDS011;12316;50.904;4.200;2023-06-10T02:30:41;9.63;;;8.73;;
24157;SDS011;12316;50.904;4.200;2023-06-10T02:33:07;11.32;;;9.77;;
24157;SDS011;12316;50.904;4.200;2023-06-10T02:35:37;10.55;;;9.25;;
24157;SDS011;12316;50.904;4.200;2023-06-10T02:38:03;11.20;;;9.80;;
24157;SDS011;12316;50.904;4.200;2023-06-10T02:40:29;12.45;;;9.30;;
24157;SDS011;12316;50.904;4.200;2023-06-10T02:42:54;12.05;;;9.65;;
24157;SDS011;12316;50.904;4.200;2023-06-10T02:45:20;10.48;;;9.13;;
24157;SDS011;12316;50.904;4.200;2023-06-10T02:47:45;10.80;;;9.70;;
24157;SDS011;12316;50.904;4.200;2023-06-10T02:50:11;13.35;;;9.60;;
24157;SDS011;12316;50.904;4.200;2023-06-10T02:52:37;12.80;;;9.95;;
24157;SDS011;12316;50.904;4.200;2023-06-10T02:55:02;11.18;;;10.07;;
24157;SDS011;12316;50.904;4.200;2023-06-10T02:57:28;12.35;;;10.05;;
24157;SDS011;12316;50.904;4.200;2023-06-10T02:59:54;14.15;;;10.30;;
24157;SDS011;12316;50.904;4.200;2023-06-10T03:02:21;11.52;;;10.02;;
24157;SDS011;12316;50.904;4.200;2023-06-10T03:04:47;12.90;;;10.02;;
24157;SDS011;12316;50.904;4.200;2023-06-10T03:07:12;14.05;;;10.23;;
24157;SDS011;12316;50.904;4.200;2023-06-10T03:09:38;15.50;;;10.00;;
24157;SDS011;12316;50.904;4.200;2023-06-10T03:12:04;11.82;;;10.60;;
24157;SDS011;12316;50.904;4.200;2023-06-10T03:14:31;11.95;;;10.75;;
24157;SDS011;12316;50.904;4.200;2023-06-10T03:16:56;13.05;;;9.98;;
24157;SDS011;12316;50.904;4.200;2023-06-10T03:19:22;11.75;;;10.45;;
24157;SDS011;12316;50.904;4.200;2023-06-10T03:21:49;12.95;;;10.57;;
24157;SDS011;12316;50.904;4.200;2023-06-10T03:24:19;11.10;;;10.10;;
24157;SDS011;12316;50.904;4.200;2023-06-10T03:26:45;11.55;;;10.50;;
24157;SDS011;12316;50.904;4.200;2023-06-10T03:29:11;11.70;;;10.60;;
24157;SDS011;12316;50.904;4.200;2023-06-10T03:31:36;13.85;;;10.32;;
24157;SDS011;12316;50.904;4.200;2023-06-10T03:34:03;12.00;;;10.80;;
24157;SDS011;12316;50.904;4.200;2023-06-10T03:36:29;12.20;;;10.90;;
24157;SDS011;12316;50.904;4.200;2023-06-10T03:38:55;12.85;;;10.30;;
24157;SDS011;12316;50.904;4.200;2023-06-10T03:41:21;12.63;;;11.32;;
24157;SDS011;12316;50.904;4.200;2023-06-10T03:43:48;12.82;;;10.77;;
24157;SDS011;12316;50.904;4.200;2023-06-10T03:46:13;13.80;;;11.30;;
24157;SDS011;12316;50.904;4.200;2023-06-10T03:48:39;14.55;;;11.55;;
24157;SDS011;12316;50.904;4.200;2023-06-10T03:51:05;14.85;;;11.65;;
24157;SDS011;12316;50.904;4.200;2023-06-10T03:53:31;15.57;;;11.50;;
24157;SDS011;12316;50.904;4.200;2023-06-10T03:55:57;13.75;;;10.90;;
24157;SDS011;12316;50.904;4.200;2023-06-10T03:58:22;13.48;;;10.95;;
24157;SDS011;12316;50.904;4.200;2023-06-10T04:00:48;17.02;;;11.27;;
24157;SDS011;12316;50.904;4.200;2023-06-10T04:03:14;14.23;;;10.70;;
24157;SDS011;12316;50.904;4.200;2023-06-10T04:05:40;15.25;;;11.18;;
24157;SDS011;12316;50.904;4.200;2023-06-10T04:08:09;13.35;;;11.25;;
24157;SDS011;12316;50.904;4.200;2023-06-10T04:10:35;12.30;;;10.98;;
24157;SDS011;12316;50.904;4.200;2023-06-10T04:13:01;12.82;;;11.48;;
24157;SDS011;12316;50.904;4.200;2023-06-10T04:15:27;15.27;;;11.50;;
24157;SDS011;12316;50.904;4.200;2023-06-10T04:17:52;13.40;;;11.60;;
24157;SDS011;12316;50.904;4.200;2023-06-10T04:20:18;13.90;;;11.55;;
24157;SDS011;12316;50.904;4.200;2023-06-10T04:22:43;14.13;;;11.65;;
24157;SDS011;12316;50.904;4.200;2023-06-10T04:25:09;13.15;;;11.02;;
24157;SDS011;12316;50.904;4.200;2023-06-10T04:27:35;14.10;;;11.20;;
24157;SDS011;12316;50.904;4.200;2023-06-10T04:30:01;12.48;;;10.88;;
24157;SDS011;12316;50.904;4.200;2023-06-10T04:32:28;13.18;;;11.02;;
24157;SDS011;12316;50.904;4.200;2023-06-10T04:34:54;13.75;;;11.43;;
24157;SDS011;12316;50.904;4.200;2023-06-10T04:37:20;13.52;;;11.13;;
24157;SDS011;12316;50.904;4.200;2023-06-10T04:39:45;13.43;;;10.80;;
24157;SDS011;12316;50.904;4.200;2023-06-10T04:42:11;13.88;;;11.18;;
24157;SDS011;12316;50.904;4.200;2023-06-10T04:44:37;12.23;;;10.93;;
24157;SDS011;12316;50.904;4.200;2023-06-10T04:47:03;18.65;;;10.80;;
24157;SDS011;12316;50.904;4.200;2023-06-10T04:49:29;13.70;;;10.40;;
24157;SDS011;12316;50.904;4.200;2023-06-10T04:51:54;15.82;;;11.18;;
24157;SDS011;12316;50.904;4.200;2023-06-10T04:54:20;17.52;;;11.13;;
24157;SDS011;12316;50.904;4.200;2023-06-10T04:56:46;12.02;;;10.52;;
24157;SDS011;12316;50.904;4.200;2023-06-10T04:59:11;15.73;;;10.98;;
24157;SDS011;12316;50.904;4.200;2023-06-10T05:01:39;13.68;;;10.88;;
24157;SDS011;12316;50.904;4.200;2023-06-10T05:04:05;12.02;;;10.77;;
24157;SDS011;12316;50.904;4.200;2023-06-10T05:06:30;12.00;;;10.73;;
24157;SDS011;12316;50.904;4.200;2023-06-10T05:08:56;13.88;;;10.20;;
24157;SDS011;12316;50.904;4.200;2023-06-10T05:11:21;16.02;;;10.52;;
24157;SDS011;12316;50.904;4.200;2023-06-10T05:13:47;16.02;;;13.50;;
24157;SDS011;12316;50.904;4.200;2023-06-10T05:16:14;11.68;;;10.27;;
24157;SDS011;12316;50.904;4.200;2023-06-10T05:18:40;16.42;;;10.73;;
24157;SDS011;12316;50.904;4.200;2023-06-10T05:21:06;13.40;;;10.75;;
24157;SDS011;12316;50.904;4.200;2023-06-10T05:23:32;13.57;;;9.98;;
24157;SDS011;12316;50.904;4.200;2023-06-10T05:25:58;13.68;;;10.07;;
24157;SDS011;12316;50.904;4.200;2023-06-10T05:28:24;11.57;;;10.40;;
24157;SDS011;12316;50.904;4.200;2023-06-10T05:30:50;12.27;;;10.15;;
24157;SDS011;12316;50.904;4.200;2023-06-10T05:33:16;11.82;;;10.00;;
24157;SDS011;12316;50.904;4.200;2023-06-10T05:35:42;12.88;;;10.30;;
24157;SDS011;12316;50.904;4.200;2023-06-10T05:38:08;15.43;;;10.75;;
24157;SDS011;12316;50.904;4.200;2023-06-10T05:40:33;11.60;;;9.63;;
24157;SDS011;12316;50.904;4.200;2023-06-10T05:42:59;11.25;;;10.15;;
24157;SDS011;12316;50.904;4.200;2023-06-10T05:45:25;11.93;;;10.55;;
24157;SDS011;12316;50.904;4.200;2023-06-10T05:47:50;12.70;;;10.13;;
24157;SDS011;12316;50.904;4.200;2023-06-10T05:50:16;11.80;;;10.57;;
24157;SDS011;12316;50.904;4.200;2023-06-10T05:52:42;11.70;;;10.40;;
24157;SDS011;12316;50.904;4.200;2023-06-10T05:55:07;12.70;;;10.15;;
24157;SDS011;12316;50.904;4.200;2023-06-10T05:57:34;15.23;;;10.50;;
24157;SDS011;12316;50.904;4.200;2023-06-10T05:59:59;16.15;;;10.68;;
24157;SDS011;12316;50.904;4.200;2023-06-10T06:02:25;18.45;;;10.73;;
24157;SDS011;12316;50.904;4.200;2023-06-10T06:04:51;12.32;;;9.77;;
24157;SDS011;12316;50.904;4.200;2023-06-10T06:07:16;17.98;;;9.88;;
24157;SDS011;12316;50.904;4.200;2023-06-10T06:09:42;11.20;;;9.90;;
24157;SDS011;12316;50.904;4.200;2023-06-10T06:12:08;13.70;;;10.13;;
24157;SDS011;12316;50.904;4.200;2023-06-10T06:14:36;14.32;;;9.88;;
24157;SDS011;12316;50.904;4.200;2023-06-10T06:17:04;11.55;;;10.07;;
24157;SDS011;12316;50.904;4.200;2023-06-10T06:19:30;14.10;;;9.38;;
24157;SDS011;12316;50.904;4.200;2023-06-10T06:21:56;12.43;;;9.45;;
24157;SDS011;12316;50.904;4.200;2023-06-10T06:24:21;11.77;;;9.48;;
24157;SDS011;12316;50.904;4.200;2023-06-10T06:26:47;14.55;;;9.43;;
24157;SDS011;12316;50.904;4.200;2023-06-10T06:29:13;12.73;;;9.75;;
24157;SDS011;12316;50.904;4.200;2023-06-10T06:31:38;10.32;;;9.32;;
24157;SDS011;12316;50.904;4.200;2023-06-10T06:34:04;13.40;;;8.93;;
24157;SDS011;12316;50.904;4.200;2023-06-10T06:36:30;12.55;;;10.15;;
24157;SDS011;12316;50.904;4.200;2023-06-10T06:38:55;11.77;;;9.63;;
24157;SDS011;12316;50.904;4.200;2023-06-10T06:41:21;12.50;;;9.00;;
24157;SDS011;12316;50.904;4.200;2023-06-10T06:43:47;10.50;;;9.50;;
24157;SDS011;12316;50.904;4.200;2023-06-10T06:46:12;11.60;;;9.07;;
24157;SDS011;12316;50.904;4.200;2023-06-10T06:48:38;10.48;;;9.27;;
24157;SDS011;12316;50.904;4.200;2023-06-10T06:51:04;12.68;;;9.40;;
24157;SDS011;12316;50.904;4.200;2023-06-10T06:53:30;12.27;;;9.80;;
24157;SDS011;12316;50.904;4.200;2023-06-10T06:55:55;14.18;;;9.50;;
24157;SDS011;12316;50.904;4.200;2023-06-10T06:58:21;14.77;;;9.55;;
24157;SDS011;12316;50.904;4.200;2023-06-10T07:00:46;10.45;;;9.30;;
24157;SDS011;12316;50.904;4.200;2023-06-10T07:03:12;11.07;;;9.40;;
24157;SDS011;12316;50.904;4.200;2023-06-10T07:05:38;12.32;;;9.68;;
24157;SDS011;12316;50.904;4.200;2023-06-10T07:08:04;10.75;;;9.35;;
24157;SDS011;12316;50.904;4.200;2023-06-10T07:10:29;10.32;;;9.27;;
24157;SDS011;12316;50.904;4.200;2023-06-10T07:12:55;13.13;;;9.35;;
24157;SDS011;12316;50.904;4.200;2023-06-10T07:15:21;12.27;;;9.05;;
24157;SDS011;12316;50.904;4.200;2023-06-10T07:17:47;13.60;;;9.30;;
24157;SDS011;12316;50.904;4.200;2023-06-10T07:20:12;11.27;;;9.55;;
24157;SDS011;12316;50.904;4.200;2023-06-10T07:22:39;10.77;;;9.40;;
24157;SDS011;12316;50.904;4.200;2023-06-10T07:25:06;12.30;;;9.52;;
24157;SDS011;12316;50.904;4.200;2023-06-10T07:27:32;13.32;;;9.98;;
24157;SDS011;12316;50.904;4.200;2023-06-10T07:29:58;10.10;;;9.10;;
24157;SDS011;12316;50.904;4.200;2023-06-10T07:32:25;10.90;;;9.30;;
24157;SDS011;12316;50.904;4.200;2023-06-10T07:34:51;13.30;;;9.30;;
24157;SDS011;12316;50.904;4.200;2023-06-10T07:37:17;11.13;;;9.55;;
24157;SDS011;12316;50.904;4.200;2023-06-10T07:39:44;12.32;;;9.23;;
24157;SDS011;12316;50.904;4.200;2023-06-10T07:42:10;11.35;;;9.50;;
24157;SDS011;12316;50.904;4.200;2023-06-10T07:44:35;13.00;;;8.85;;
24157;SDS011;12316;50.904;4.200;2023-06-10T07:47:02;10.73;;;8.90;;
24157;SDS011;12316;50.904;4.200;2023-06-10T07:49:28;10.75;;;8.57;;
24157;SDS011;12316;50.904;4.200;2023-06-10T07:51:54;13.90;;;8.95;;
24157;SDS011;12316;50.904;4.200;2023-06-10T07:54:22;12.18;;;8.88;;
24157;SDS011;12316;50.904;4.200;2023-06-10T07:56:48;9.60;;;8.27;;
24157;SDS011;12316;50.904;4.200;2023-06-10T07:59:14;10.52;;;8.75;;
24157;SDS011;12316;50.904;4.200;2023-06-10T08:01:39;10.45;;;8.98;;
24157;SDS011;12316;50.904;4.200;2023-06-10T08:04:05;9.90;;;8.07;;
24157;SDS011;12316;50.904;4.200;2023-06-10T08:06:31;9.10;;;8.20;;
24157;SDS011;12316;50.904;4.200;2023-06-10T08:08:57;9.93;;;8.15;;
24157;SDS011;12316;50.904;4.200;2023-06-10T08:11:22;10.32;;;7.45;;
24157;SDS011;12316;50.904;4.200;2023-06-10T08:13:48;10.32;;;8.30;;
24157;SDS011;12316;50.904;4.200;2023-06-10T08:16:14;10.93;;;8.48;;
24157;SDS011;12316;50.904;4.200;2023-06-10T08:18:40;8.70;;;7.80;;
24157;SDS011;12316;50.904;4.200;2023-06-10T08:21:06;8.20;;;7.38;;
24157;SDS011;12316;50.904;4.200;2023-06-10T08:23:31;8.50;;;6.72;;
24157;SDS011;12316;50.904;4.200;2023-06-10T08:25:57;8.70;;;7.60;;
24157;SDS011;12316;50.904;4.200;2023-06-10T08:28:23;9.68;;;7.10;;
24157;SDS011;12316;50.904;4.200;2023-06-10T08:30:48;10.20;;;6.88;;
24157;SDS011;12316;50.904;4.200;2023-06-10T08:33:14;10.00;;;7.38;;
24157;SDS011;12316;50.904;4.200;2023-06-10T08:35:40;13.48;;;7.70;;
24157;SDS011;12316;50.904;4.200;2023-06-10T08:38:05;9.88;;;6.82;;
24157;SDS011;12316;50.904;4.200;2023-06-10T08:40:32;7.85;;;7.07;;
24157;SDS011;12316;50.904;4.200;2023-06-10T08:45:30;14.70;;;7.03;;
24157;SDS011;12316;50.904;4.200;2023-06-10T08:48:00;7.32;;;6.45;;
24157;SDS011;12316;50.904;4.200;2023-06-10T08:50:37;10.80;;;7.18;;
24157;SDS011;12316;50.904;4.200;2023-06-10T08:53:06;11.23;;;7.07;;
24157;SDS011;12316;50.904;4.200;2023-06-10T08:55:34;8.82;;;7.18;;
24157;SDS011;12316;50.904;4.200;2023-06-10T08:58:03;10.80;;;7.90;;
24157;SDS011;12316;50.904;4.200;2023-06-10T09:00:29;16.27;;;7.78;;
24157;SDS011;12316;50.904;4.200;2023-06-10T09:02:56;10.50;;;8.05;;
24157;SDS011;12316;50.904;4.200;2023-06-10T09:05:23;9.90;;;7.97;;
24157;SDS011;12316;50.904;4.200;2023-06-10T09:07:49;9.95;;;7.55;;
24157;SDS011;12316;50.904;4.200;2023-06-10T09:10:17;13.20;;;7.30;;
24157;SDS011;12316;50.904;4.200;2023-06-10T09:12:43;10.02;;;7.45;;
24157;SDS011;12316;50.904;4.200;2023-06-10T09:15:09;9.07;;;7.20;;
24157;SDS011;12316;50.904;4.200;2023-06-10T09:17:37;7.40;;;6.70;;
24157;SDS011;12316;50.904;4.200;2023-06-10T09:20:05;8.90;;;7.07;;
24157;SDS011;12316;50.904;4.200;2023-06-10T09:22:33;8.90;;;6.68;;
24157;SDS011;12316;50.904;4.200;2023-06-10T09:25:06;10.65;;;6.80;;
24157;SDS011;12316;50.904;4.200;2023-06-10T09:27:48;9.68;;;6.80;;
24157;SDS011;12316;50.904;4.200;2023-06-10T09:30:25;12.95;;;6.40;;
24157;SDS011;12316;50.904;4.200;2023-06-10T09:32:53;7.47;;;6.68;;
24157;SDS011;12316;50.904;4.200;2023-06-10T09:35:23;7.40;;;6.70;;
24157;SDS011;12316;50.904;4.200;2023-06-10T09:37:54;6.90;;;6.20;;
24157;SDS011;12316;50.904;4.200;2023-06-10T09:40:21;8.77;;;7.10;;
24157;SDS011;12316;50.904;4.200;2023-06-10T09:42:47;13.35;;;7.00;;
24157;SDS011;12316;50.904;4.200;2023-06-10T09:45:20;8.20;;;6.57;;
24157;SDS011;12316;50.904;4.200;2023-06-10T09:47:52;6.97;;;5.90;;
24157;SDS011;12316;50.904;4.200;2023-06-10T09:50:18;8.15;;;6.18;;
24157;SDS011;12316;50.904;4.200;2023-06-10T09:52:45;7.20;;;5.47;;
24157;SDS011;12316;50.904;4.200;2023-06-10T09:55:12;10.93;;;6.43;;
24157;SDS011;12316;50.904;4.200;2023-06-10T09:57:38;7.35;;;6.18;;
24157;SDS011;12316;50.904;4.200;2023-06-10T10:00:09;8.38;;;6.30;;
24157;SDS011;12316;50.904;4.200;2023-06-10T10:05:17;6.93;;;6.05;;
24157;SDS011;12316;50.904;4.200;2023-06-10T10:07:44;7.20;;;5.97;;
24157;SDS011;12316;50.904;4.200;2023-06-10T10:10:10;6.90;;;6.30;;
24157;SDS011;12316;50.904;4.200;2023-06-10T10:12:40;9.25;;;5.78;;
24157;SDS011;12316;50.904;4.200;2023-06-10T10:15:10;10.73;;;5.45;;
24157;SDS011;12316;50.904;4.200;2023-06-10T10:17:40;8.23;;;6.05;;
24157;SDS011;12316;50.904;4.200;2023-06-10T10:20:12;6.45;;;5.85;;
24157;SDS011;12316;50.904;4.200;2023-06-10T10:22:40;6.38;;;5.70;;
24157;SDS011;12316;50.904;4.200;2023-06-10T10:25:12;7.30;;;5.57;;
24157;SDS011;12316;50.904;4.200;2023-06-10T10:27:47;7.70;;;5.88;;
24157;SDS011;12316;50.904;4.200;2023-06-10T10:30:15;6.75;;;5.50;;
24157;SDS011;12316;50.904;4.200;2023-06-10T10:35:19;6.57;;;5.43;;
24157;SDS011;12316;50.904;4.200;2023-06-10T10:37:52;6.53;;;5.85;;
24157;SDS011;12316;50.904;4.200;2023-06-10T10:40:19;6.57;;;5.63;;
24157;SDS011;12316;50.904;4.200;2023-06-10T10:42:49;8.50;;;5.47;;
24157;SDS011;12316;50.904;4.200;2023-06-10T10:45:15;8.15;;;5.80;;
24157;SDS011;12316;50.904;4.200;2023-06-10T10:47:41;8.00;;;5.65;;
24157;SDS011;12316;50.904;4.200;2023-06-10T10:50:13;7.60;;;5.40;;
24157;SDS011;12316;50.904;4.200;2023-06-10T10:52:53;6.13;;;5.35;;
24157;SDS011;12316;50.904;4.200;2023-06-10T10:55:26;8.90;;;5.03;;
24157;SDS011;12316;50.904;4.200;2023-06-10T11:00:37;6.63;;;5.60;;
24157;SDS011;12316;50.904;4.200;2023-06-10T11:03:12;6.45;;;5.80;;
24157;SDS011;12316;50.904;4.200;2023-06-10T11:05:40;7.60;;;5.38;;
24157;SDS011;12316;50.904;4.200;2023-06-10T11:08:09;5.80;;;5.20;;
24157;SDS011;12316;50.904;4.200;2023-06-10T11:10:36;6.13;;;5.53;;
24157;SDS011;12316;50.904;4.200;2023-06-10T11:13:09;7.20;;;5.88;;
24157;SDS011;12316;50.904;4.200;2023-06-10T11:15:39;6.32;;;5.30;;
24157;SDS011;12316;50.904;4.200;2023-06-10T11:18:24;8.07;;;5.78;;
24157;SDS011;12316;50.904;4.200;2023-06-10T11:20:52;6.40;;;5.45;;
24157;SDS011;12316;50.904;4.200;2023-06-10T11:31:19;5.78;;;5.28;;
24157;SDS011;12316;50.904;4.200;2023-06-10T11:33:46;8.52;;;5.30;;
24157;SDS011;12316;50.904;4.200;2023-06-10T11:36:13;5.28;;;4.57;;
24157;SDS011;12316;50.904;4.200;2023-06-10T11:38:40;6.32;;;4.90;;
24157;SDS011;12316;50.904;4.200;2023-06-10T11:41:06;5.35;;;4.85;;
24157;SDS011;12316;50.904;4.200;2023-06-10T11:43:32;6.05;;;5.10;;
24157;SDS011;12316;50.904;4.200;2023-06-10T11:45:58;6.30;;;5.70;;
24157;SDS011;12316;50.904;4.200;2023-06-10T11:48:25;9.07;;;5.53;;
24157;SDS011;12316;50.904;4.200;2023-06-10T11:50:53;6.57;;;5.25;;
24157;SDS011;12316;50.904;4.200;2023-06-10T11:53:19;6.65;;;6.00;;
24157;SDS011;12316;50.904;4.200;2023-06-10T11:55:45;6.20;;;5.60;;
24157;SDS011;12316;50.904;4.200;2023-06-10T11:58:21;8.07;;;5.80;;
24157;SDS011;12316;50.904;4.200;2023-06-10T12:00:53;6.20;;;5.57;;
24157;SDS011;12316;50.904;4.200;2023-06-10T12:03:23;8.18;;;6.00;;
24157;SDS011;12316;50.904;4.200;2023-06-10T12:08:26;6.55;;;5.65;;
24157;SDS011;12316;50.904;4.200;2023-06-10T12:10:53;8.48;;;5.63;;
24157;SDS011;12316;50.904;4.200;2023-06-10T12:13:19;5.97;;;5.40;;
24157;SDS011;12316;50.904;4.200;2023-06-10T12:15:45;6.40;;;5.50;;
24157;SDS011;12316;50.904;4.200;2023-06-10T12:18:23;6.30;;;5.55;;
24157;SDS011;12316;50.904;4.200;2023-06-10T12:20:50;7.15;;;5.75;;
24157;SDS011;12316;50.904;4.200;2023-06-10T12:23:16;8.20;;;5.72;;
24157;SDS011;12316;50.904;4.200;2023-06-10T12:25:50;7.80;;;6.03;;
24157;SDS011;12316;50.904;4.200;2023-06-10T12:28:22;7.00;;;5.93;;
24157;SDS011;12316;50.904;4.200;2023-06-10T12:30:49;8.38;;;5.97;;
24157;SDS011;12316;50.904;4.200;2023-06-10T12:33:21;8.65;;;6.30;;
24157;SDS011;12316;50.904;4.200;2023-06-10T12:35:50;11.77;;;6.68;;
24157;SDS011;12316;50.904;4.200;2023-06-10T12:38:23;6.93;;;6.32;;
24157;SDS011;12316;50.904;4.200;2023-06-10T12:40:52;7.18;;;6.40;;
24157;SDS011;12316;50.904;4.200;2023-06-10T12:43:22;7.03;;;6.30;;
24157;SDS011;12316;50.904;4.200;2023-06-10T12:45:48;7.28;;;6.50;;
24157;SDS011;12316;50.904;4.200;2023-06-10T12:48:18;7.10;;;6.00;;
24157;SDS011;12316;50.904;4.200;2023-06-10T12:50:50;7.40;;;6.68;;
24157;SDS011;12316;50.904;4.200;2023-06-10T12:53:17;7.15;;;6.30;;
24157;SDS011;12316;50.904;4.200;2023-06-10T12:55:44;7.70;;;6.50;;
24157;SDS011;12316;50.904;4.200;2023-06-10T12:58:10;11.73;;;7.05;;
24157;SDS011;12316;50.904;4.200;2023-06-10T13:00:37;8.18;;;6.90;;
24157;SDS011;12316;50.904;4.200;2023-06-10T13:03:03;9.00;;;6.63;;
24157;SDS011;12316;50.904;4.200;2023-06-10T13:05:30;8.65;;;6.22;;
24157;SDS011;12316;50.904;4.200;2023-06-10T13:07:58;8.60;;;6.13;;
24157;SDS011;12316;50.904;4.200;2023-06-10T13:10:24;8.00;;;6.55;;
24157;SDS011;12316;50.904;4.200;2023-06-10T13:12:50;7.43;;;6.20;;
24157;SDS011;12316;50.904;4.200;2023-06-10T13:15:16;7.03;;;6.07;;
24157;SDS011;12316;50.904;4.200;2023-06-10T13:17:45;6.72;;;5.88;;
24157;SDS011;12316;50.904;4.200;2023-06-10T13:20:14;11.13;;;6.43;;
24157;SDS011;12316;50.904;4.200;2023-06-10T13:22:41;9.38;;;6.50;;
24157;SDS011;12316;50.904;4.200;2023-06-10T13:25:07;11.70;;;6.55;;
24157;SDS011;12316;50.904;4.200;2023-06-10T13:27:33;7.25;;;6.55;;
24157;SDS011;12316;50.904;4.200;2023-06-10T13:30:00;11.52;;;6.25;;
24157;SDS011;12316;50.904;4.200;2023-06-10T13:32:26;7.93;;;6.28;;
24157;SDS011;12316;50.904;4.200;2023-06-10T13:34:51;7.10;;;6.40;;
24157;SDS011;12316;50.904;4.200;2023-06-10T13:37:18;9.18;;;6.15;;
24157;SDS011;12316;50.904;4.200;2023-06-10T13:39:44;7.78;;;6.20;;
24157;SDS011;12316;50.904;4.200;2023-06-10T13:42:15;7.70;;;6.05;;
24157;SDS011;12316;50.904;4.200;2023-06-10T13:44:41;9.02;;;6.40;;
24157;SDS011;12316;50.904;4.200;2023-06-10T13:47:07;8.35;;;6.28;;
24157;SDS011;12316;50.904;4.200;2023-06-10T13:49:33;8.15;;;6.03;;
24157;SDS011;12316;50.904;4.200;2023-06-10T13:51:58;9.20;;;6.50;;
24157;SDS011;12316;50.904;4.200;2023-06-10T13:54:24;7.03;;;6.22;;
24157;SDS011;12316;50.904;4.200;2023-06-10T13:56:50;7.00;;;6.30;;
24157;SDS011;12316;50.904;4.200;2023-06-10T13:59:15;7.55;;;6.30;;
24157;SDS011;12316;50.904;4.200;2023-06-10T14:01:42;9.10;;;6.13;;
24157;SDS011;12316;50.904;4.200;2023-06-10T14:04:07;6.63;;;5.90;;
24157;SDS011;12316;50.904;4.200;2023-06-10T14:06:33;9.68;;;6.68;;
24157;SDS011;12316;50.904;4.200;2023-06-10T14:08:59;9.18;;;6.30;;
24157;SDS011;12316;50.904;4.200;2023-06-10T14:11:25;9.80;;;6.25;;
24157;SDS011;12316;50.904;4.200;2023-06-10T14:13:52;6.93;;;6.10;;
24157;SDS011;12316;50.904;4.200;2023-06-10T14:16:17;7.00;;;6.18;;
24157;SDS011;12316;50.904;4.200;2023-06-10T14:18:43;6.80;;;5.95;;
24157;SDS011;12316;50.904;4.200;2023-06-10T14:21:09;6.40;;;5.80;;
24157;SDS011;12316;50.904;4.200;2023-06-10T14:23:34;11.30;;;6.07;;
24157;SDS011;12316;50.904;4.200;2023-06-10T14:26:00;6.85;;;6.13;;
24157;SDS011;12316;50.904;4.200;2023-06-10T14:28:27;6.93;;;6.00;;
24157;SDS011;12316;50.904;4.200;2023-06-10T14:30:54;9.38;;;6.70;;
24157;SDS011;12316;50.904;4.200;2023-06-10T14:33:19;8.77;;;6.45;;
24157;SDS011;12316;50.904;4.200;2023-06-10T14:35:45;9.30;;;6.60;;
24157;SDS011;12316;50.904;4.200;2023-06-10T14:38:11;7.85;;;6.20;;
24157;SDS011;12316;50.904;4.200;2023-06-10T14:40:37;7.22;;;6.45;;
24157;SDS011;12316;50.904;4.200;2023-06-10T14:43:03;8.98;;;6.55;;
24157;SDS011;12316;50.904;4.200;2023-06-10T14:45:34;10.05;;;6.38;;
24157;SDS011;12316;50.904;4.200;2023-06-10T14:48:04;8.18;;;6.45;;
24157;SDS011;12316;50.904;4.200;2023-06-10T14:50:32;7.05;;;5.50;;
24157;SDS011;12316;50.904;4.200;2023-06-10T14:52:59;9.00;;;6.35;;
24157;SDS011;12316;50.904;4.200;2023-06-10T14:55:25;7.00;;;6.30;;
24157;SDS011;12316;50.904;4.200;2023-06-10T14:57:51;7.53;;;6.40;;
24157;SDS011;12316;50.904;4.200;2023-06-10T15:00:16;7.05;;;6.25;;
24157;SDS011;12316;50.904;4.200;2023-06-10T15:02:47;8.40;;;6.65;;